sensor_id;sensor_type;location;lat;lon;timestamp;P1;durP1;ratioP1;P2;durP2;ratioP2
17812;SDS011;9030;50.792;8.320;2023-05-01T00:02:02;12.23;;;5.13;;
17812;SDS011;9030;50.792;8.320;2023-05-01T00:04:31;8.47;;;4.37;;
17812;SDS011;9030;50.792;8.320;2023-05-01T00:06:58;8.10;;;3.27;;
17812;SDS011;9030;50.792;8.320;2023-05-01T00:09:26;7.70;;;4.20;;
17812;SDS011;9030;50.792;8.320;2023-05-01T00:11:53;8.77;;;4.20;;
17812;SDS011;9030;50.792;8.320;2023-05-01T00:14:19;10.93;;;5.20;;
17812;SDS011;9030;50.792;8.320;2023-05-01T00:16:46;10.07;;;4.10;;
17812;SDS011;9030;50.792;8.320;2023-05-01T00:19:13;8.37;;;4.10;;
17812;SDS011;9030;50.792;8.320;2023-05-01T00:21:43;6.97;;;4.37;;
17812;SDS011;9030;50.792;8.320;2023-05-01T00:24:11;8.57;;;3.73;;
17812;SDS011;9030;50.792;8.320;2023-05-01T00:26:38;9.83;;;4.07;;
17812;SDS011;9030;50.792;8.320;2023-05-01T00:29:05;10.43;;;3.60;;
17812;SDS011;9030;50.792;8.320;2023-05-01T00:31:31;9.00;;;4.20;;
17812;SDS011;9030;50.792;8.320;2023-05-01T00:33:58;7.00;;;3.10;;
17812;SDS011;9030;50.792;8.320;2023-05-01T00:36:25;9.17;;;3.40;;
17812;SDS011;9030;50.792;8.320;2023-05-01T00:38:53;8.27;;;3.40;;
17812;SDS011;9030;50.792;8.320;2023-05-01T00:41:20;8.40;;;3.70;;
17812;SDS011;9030;50.792;8.320;2023-05-01T00:43:46;14.80;;;4.20;;
17812;SDS011;9030;50.792;8.320;2023-05-01T00:46:13;11.33;;;4.43;;
17812;SDS011;9030;50.792;8.320;2023-05-01T00:48:40;8.10;;;3.80;;
17812;SDS011;9030;50.792;8.320;2023-05-01T00:51:07;6.13;;;3.30;;
17812;SDS011;9030;50.792;8.320;2023-05-01T00:53:34;9.33;;;3.90;;
17812;SDS011;9030;50.792;8.320;2023-05-01T00:56:03;11.30;;;4.50;;
17812;SDS011;9030;50.792;8.320;2023-05-01T00:58:31;9.20;;;4.10;;
17812;SDS011;9030;50.792;8.320;2023-05-01T01:00:58;8.73;;;4.60;;
17812;SDS011;9030;50.792;8.320;2023-05-01T01:03:25;9.20;;;5.10;;
17812;SDS011;9030;50.792;8.320;2023-05-01T01:05:52;11.47;;;4.83;;
17812;SDS011;9030;50.792;8.320;2023-05-01T01:08:25;9.33;;;4.87;;
17812;SDS011;9030;50.792;8.320;2023-05-01T01:10:55;9.93;;;4.10;;
17812;SDS011;9030;50.792;8.320;2023-05-01T01:13:35;10.47;;;5.90;;
17812;SDS011;9030;50.792;8.320;2023-05-01T01:16:08;12.80;;;5.07;;
17812;SDS011;9030;50.792;8.320;2023-05-01T01:18:39;9.47;;;4.17;;
17812;SDS011;9030;50.792;8.320;2023-05-01T01:21:11;11.70;;;4.20;;
17812;SDS011;9030;50.792;8.320;2023-05-01T01:24:02;11.00;;;4.97;;
17812;SDS011;9030;50.792;8.320;2023-05-01T01:30:13;10.97;;;4.47;;
17812;SDS011;9030;50.792;8.320;2023-05-01T01:33:01;11.27;;;3.80;;
17812;SDS011;9030;50.792;8.320;2023-05-01T01:35:53;8.90;;;3.83;;
17812;SDS011;9030;50.792;8.320;2023-05-01T01:38:23;11.90;;;4.17;;
17812;SDS011;9030;50.792;8.320;2023-05-01T01:40:56;9.63;;;4.50;;
17812;SDS011;9030;50.792;8.320;2023-05-01T01:43:26;9.40;;;4.07;;
17812;SDS011;9030;50.792;8.320;2023-05-01T01:46:04;7.40;;;3.73;;
17812;SDS011;9030;50.792;8.320;2023-05-01T01:48:33;11.77;;;4.40;;
17812;SDS011;9030;50.792;8.320;2023-05-01T01:51:04;8.40;;;3.87;;
17812;SDS011;9030;50.792;8.320;2023-05-01T01:53:34;9.13;;;4.13;;
17812;SDS011;9030;50.792;8.320;2023-05-01T01:56:04;17.37;;;4.53;;
17812;SDS011;9030;50.792;8.320;2023-05-01T01:58:34;9.70;;;4.50;;
17812;SDS011;9030;50.792;8.320;2023-05-01T02:01:03;9.47;;;4.20;;
17812;SDS011;9030;50.792;8.320;2023-05-01T02:03:31;6.57;;;3.73;;
17812;SDS011;9030;50.792;8.320;2023-05-01T02:05:59;8.47;;;4.03;;
17812;SDS011;9030;50.792;8.320;2023-05-01T02:08:28;9.23;;;4.73;;
17812;SDS011;9030;50.792;8.320;2023-05-01T02:10:56;9.63;;;3.87;;
17812;SDS011;9030;50.792;8.320;2023-05-01T02:13:26;12.70;;;3.97;;
17812;SDS011;9030;50.792;8.320;2023-05-01T02:15:53;9.70;;;3.93;;
17812;SDS011;9030;50.792;8.320;2023-05-01T02:18:23;7.27;;;3.97;;
17812;SDS011;9030;50.792;8.320;2023-05-01T02:20:51;8.80;;;4.77;;
17812;SDS011;9030;50.792;8.320;2023-05-01T02:23:18;9.67;;;3.63;;
17812;SDS011;9030;50.792;8.320;2023-05-01T02:25:47;8.67;;;3.43;;
17812;SDS011;9030;50.792;8.320;2023-05-01T02:28:16;9.60;;;4.20;;
17812;SDS011;9030;50.792;8.320;2023-05-01T02:30:48;7.63;;;3.67;;
17812;SDS011;9030;50.792;8.320;2023-05-01T02:33:15;13.50;;;4.33;;
17812;SDS011;9030;50.792;8.320;2023-05-01T02:35:42;9.03;;;4.17;;
17812;SDS011;9030;50.792;8.320;2023-05-01T02:38:11;9.80;;;4.67;;
17812;SDS011;9030;50.792;8.320;2023-05-01T02:40:39;8.37;;;3.83;;
17812;SDS011;9030;50.792;8.320;2023-05-01T02:43:08;8.23;;;4.70;;
17812;SDS011;9030;50.792;8.320;2023-05-01T02:45:37;12.03;;;4.43;;
17812;SDS011;9030;50.792;8.320;2023-05-01T02:48:06;8.50;;;4.23;;
17812;SDS011;9030;50.792;8.320;2023-05-01T02:50:36;10.17;;;3.53;;
17812;SDS011;9030;50.792;8.320;2023-05-01T02:53:06;10.70;;;4.50;;
17812;SDS011;9030;50.792;8.320;2023-05-01T02:55:33;10.00;;;4.53;;
17812;SDS011;9030;50.792;8.320;2023-05-01T02:58:00;13.70;;;5.20;;
17812;SDS011;9030;50.792;8.320;2023-05-01T03:00:28;10.20;;;3.77;;
17812;SDS011;9030;50.792;8.320;2023-05-01T03:02:55;13.27;;;4.80;;
17812;SDS011;9030;50.792;8.320;2023-05-01T03:05:22;13.40;;;5.87;;
17812;SDS011;9030;50.792;8.320;2023-05-01T03:07:49;10.30;;;5.03;;
17812;SDS011;9030;50.792;8.320;2023-05-01T03:10:15;13.07;;;5.27;;
17812;SDS011;9030;50.792;8.320;2023-05-01T03:12:42;11.10;;;6.33;;
17812;SDS011;9030;50.792;8.320;2023-05-01T03:15:09;18.70;;;5.13;;
17812;SDS011;9030;50.792;8.320;2023-05-01T03:17:37;10.70;;;4.67;;
17812;SDS011;9030;50.792;8.320;2023-05-01T03:20:05;10.33;;;4.83;;
17812;SDS011;9030;50.792;8.320;2023-05-01T03:22:33;9.80;;;4.43;;
17812;SDS011;9030;50.792;8.320;2023-05-01T03:25:00;11.53;;;4.20;;
17812;SDS011;9030;50.792;8.320;2023-05-01T03:27:28;10.20;;;4.00;;
17812;SDS011;9030;50.792;8.320;2023-05-01T03:29:55;9.70;;;3.83;;
17812;SDS011;9030;50.792;8.320;2023-05-01T03:32:22;9.63;;;4.17;;
17812;SDS011;9030;50.792;8.320;2023-05-01T03:34:50;9.67;;;3.53;;
17812;SDS011;9030;50.792;8.320;2023-05-01T03:37:17;8.70;;;4.30;;
17812;SDS011;9030;50.792;8.320;2023-05-01T03:39:44;12.00;;;5.13;;
17812;SDS011;9030;50.792;8.320;2023-05-01T03:42:10;8.83;;;3.90;;
17812;SDS011;9030;50.792;8.320;2023-05-01T03:44:37;11.17;;;4.63;;
17812;SDS011;9030;50.792;8.320;2023-05-01T03:47:04;10.93;;;4.00;;
17812;SDS011;9030;50.792;8.320;2023-05-01T03:49:31;9.17;;;5.03;;
17812;SDS011;9030;50.792;8.320;2023-05-01T03:51:59;10.47;;;5.27;;
17812;SDS011;9030;50.792;8.320;2023-05-01T03:54:25;10.80;;;5.37;;
17812;SDS011;9030;50.792;8.320;2023-05-01T03:56:52;10.20;;;5.87;;
17812;SDS011;9030;50.792;8.320;2023-05-01T03:59:19;13.57;;;6.03;;
17812;SDS011;9030;50.792;8.320;2023-05-01T04:01:45;10.63;;;5.67;;
17812;SDS011;9030;50.792;8.320;2023-05-01T04:04:12;15.60;;;7.40;;
17812;SDS011;9030;50.792;8.320;2023-05-01T04:06:39;12.47;;;7.17;;
17812;SDS011;9030;50.792;8.320;2023-05-01T04:09:07;15.20;;;6.73;;
17812;SDS011;9030;50.792;8.320;2023-05-01T04:11:35;10.13;;;5.73;;
17812;SDS011;9030;50.792;8.320;2023-05-01T04:14:01;10.73;;;5.97;;
17812;SDS011;9030;50.792;8.320;2023-05-01T04:16:28;10.93;;;5.67;;
17812;SDS011;9030;50.792;8.320;2023-05-01T04:18:56;13.53;;;8.47;;
17812;SDS011;9030;50.792;8.320;2023-05-01T04:21:22;23.77;;;18.97;;
17812;SDS011;9030;50.792;8.320;2023-05-01T04:23:50;20.30;;;13.30;;
17812;SDS011;9030;50.792;8.320;2023-05-01T04:26:18;15.80;;;9.37;;
17812;SDS011;9030;50.792;8.320;2023-05-01T04:28:46;18.30;;;10.03;;
17812;SDS011;9030;50.792;8.320;2023-05-01T04:31:12;19.90;;;9.87;;
17812;SDS011;9030;50.792;8.320;2023-05-01T04:33:39;13.03;;;7.83;;
17812;SDS011;9030;50.792;8.320;2023-05-01T04:36:06;16.43;;;8.83;;
17812;SDS011;9030;50.792;8.320;2023-05-01T04:38:33;15.40;;;9.93;;
17812;SDS011;9030;50.792;8.320;2023-05-01T04:41:01;17.20;;;10.03;;
17812;SDS011;9030;50.792;8.320;2023-05-01T04:43:29;12.83;;;6.73;;
17812;SDS011;9030;50.792;8.320;2023-05-01T04:45:55;14.30;;;9.17;;
17812;SDS011;9030;50.792;8.320;2023-05-01T04:48:23;15.17;;;10.07;;
17812;SDS011;9030;50.792;8.320;2023-05-01T04:50:49;13.80;;;9.33;;
17812;SDS011;9030;50.792;8.320;2023-05-01T04:53:16;15.40;;;5.83;;
17812;SDS011;9030;50.792;8.320;2023-05-01T04:55:43;14.40;;;5.40;;
17812;SDS011;9030;50.792;8.320;2023-05-01T04:58:09;13.63;;;6.80;;
17812;SDS011;9030;50.792;8.320;2023-05-01T05:00:37;12.20;;;5.13;;
17812;SDS011;9030;50.792;8.320;2023-05-01T05:03:04;17.03;;;7.40;;
17812;SDS011;9030;50.792;8.320;2023-05-01T05:05:31;13.27;;;7.00;;
17812;SDS011;9030;50.792;8.320;2023-05-01T05:07:59;16.03;;;7.80;;
17812;SDS011;9030;50.792;8.320;2023-05-01T05:10:27;19.40;;;7.77;;
17812;SDS011;9030;50.792;8.320;2023-05-01T05:12:53;13.33;;;7.47;;
17812;SDS011;9030;50.792;8.320;2023-05-01T05:15:20;11.43;;;6.10;;
17812;SDS011;9030;50.792;8.320;2023-05-01T05:17:48;12.53;;;6.13;;
17812;SDS011;9030;50.792;8.320;2023-05-01T05:20:15;11.17;;;6.33;;
17812;SDS011;9030;50.792;8.320;2023-05-01T05:22:42;9.27;;;5.10;;
17812;SDS011;9030;50.792;8.320;2023-05-01T05:25:09;12.80;;;6.17;;
17812;SDS011;9030;50.792;8.320;2023-05-01T05:27:35;12.40;;;6.70;;
17812;SDS011;9030;50.792;8.320;2023-05-01T05:30:03;14.70;;;5.70;;
17812;SDS011;9030;50.792;8.320;2023-05-01T05:32:30;12.80;;;6.93;;
17812;SDS011;9030;50.792;8.320;2023-05-01T05:34:59;13.03;;;6.90;;
17812;SDS011;9030;50.792;8.320;2023-05-01T05:37:26;15.00;;;6.83;;
17812;SDS011;9030;50.792;8.320;2023-05-01T05:39:52;11.63;;;6.43;;
17812;SDS011;9030;50.792;8.320;2023-05-01T05:42:19;12.43;;;6.40;;
17812;SDS011;9030;50.792;8.320;2023-05-01T05:44:46;15.07;;;5.17;;
17812;SDS011;9030;50.792;8.320;2023-05-01T05:47:13;11.80;;;5.40;;
17812;SDS011;9030;50.792;8.320;2023-05-01T05:49:39;9.97;;;5.27;;
17812;SDS011;9030;50.792;8.320;2023-05-01T05:52:08;13.43;;;5.77;;
17812;SDS011;9030;50.792;8.320;2023-05-01T05:54:34;13.37;;;6.07;;
17812;SDS011;9030;50.792;8.320;2023-05-01T05:57:01;14.10;;;6.17;;
17812;SDS011;9030;50.792;8.320;2023-05-01T05:59:28;11.33;;;5.90;;
17812;SDS011;9030;50.792;8.320;2023-05-01T06:01:55;12.13;;;6.17;;
17812;SDS011;9030;50.792;8.320;2023-05-01T06:04:22;14.97;;;6.23;;
17812;SDS011;9030;50.792;8.320;2023-05-01T06:06:51;11.03;;;5.83;;
17812;SDS011;9030;50.792;8.320;2023-05-01T06:09:21;11.07;;;6.77;;
17812;SDS011;9030;50.792;8.320;2023-05-01T06:11:48;15.10;;;6.87;;
17812;SDS011;9030;50.792;8.320;2023-05-01T06:14:15;10.23;;;5.20;;
17812;SDS011;9030;50.792;8.320;2023-05-01T06:16:41;13.27;;;4.83;;
17812;SDS011;9030;50.792;8.320;2023-05-01T06:19:09;10.27;;;5.17;;
17812;SDS011;9030;50.792;8.320;2023-05-01T06:21:36;10.23;;;4.93;;
17812;SDS011;9030;50.792;8.320;2023-05-01T06:24:03;10.83;;;5.47;;
17812;SDS011;9030;50.792;8.320;2023-05-01T06:26:31;6.83;;;4.07;;
17812;SDS011;9030;50.792;8.320;2023-05-01T06:28:58;8.93;;;4.27;;
17812;SDS011;9030;50.792;8.320;2023-05-01T06:31:25;7.40;;;4.03;;
17812;SDS011;9030;50.792;8.320;2023-05-01T06:33:52;11.30;;;5.57;;
17812;SDS011;9030;50.792;8.320;2023-05-01T06:36:19;11.20;;;5.00;;
17812;SDS011;9030;50.792;8.320;2023-05-01T06:38:46;8.27;;;4.53;;
17812;SDS011;9030;50.792;8.320;2023-05-01T06:41:13;10.70;;;4.30;;
17812;SDS011;9030;50.792;8.320;2023-05-01T06:43:41;8.50;;;3.85;;
17812;SDS011;9030;50.792;8.320;2023-05-01T06:46:08;9.73;;;3.63;;
17812;SDS011;9030;50.792;8.320;2023-05-01T06:48:36;8.25;;;3.72;;
17812;SDS011;9030;50.792;8.320;2023-05-01T06:51:03;7.13;;;3.50;;
17812;SDS011;9030;50.792;8.320;2023-05-01T06:53:30;8.75;;;4.10;;
17812;SDS011;9030;50.792;8.320;2023-05-01T06:55:56;10.98;;;4.40;;
17812;SDS011;9030;50.792;8.320;2023-05-01T06:58:23;11.35;;;3.53;;
17812;SDS011;9030;50.792;8.320;2023-05-01T07:00:52;10.00;;;4.10;;
17812;SDS011;9030;50.792;8.320;2023-05-01T07:03:19;11.88;;;3.97;;
17812;SDS011;9030;50.792;8.320;2023-05-01T07:05:46;10.18;;;4.00;;
17812;SDS011;9030;50.792;8.320;2023-05-01T07:08:13;9.32;;;3.47;;
17812;SDS011;9030;50.792;8.320;2023-05-01T07:10:39;8.38;;;3.88;;
17812;SDS011;9030;50.792;8.320;2023-05-01T07:13:06;11.25;;;3.90;;
17812;SDS011;9030;50.792;8.320;2023-05-01T07:15:35;10.95;;;4.38;;
17812;SDS011;9030;50.792;8.320;2023-05-01T07:18:05;9.98;;;4.10;;
17812;SDS011;9030;50.792;8.320;2023-05-01T07:20:31;14.32;;;5.32;;
17812;SDS011;9030;50.792;8.320;2023-05-01T07:22:59;10.20;;;4.18;;
17812;SDS011;9030;50.792;8.320;2023-05-01T07:25:25;12.23;;;4.50;;
17812;SDS011;9030;50.792;8.320;2023-05-01T07:27:52;7.32;;;3.50;;
17812;SDS011;9030;50.792;8.320;2023-05-01T07:30:19;8.63;;;3.60;;
17812;SDS011;9030;50.792;8.320;2023-05-01T07:32:46;9.70;;;3.65;;
17812;SDS011;9030;50.792;8.320;2023-05-01T07:35:14;8.82;;;4.45;;
17812;SDS011;9030;50.792;8.320;2023-05-01T07:37:41;9.65;;;3.95;;
17812;SDS011;9030;50.792;8.320;2023-05-01T07:40:07;11.32;;;3.75;;
17812;SDS011;9030;50.792;8.320;2023-05-01T07:42:35;10.30;;;5.25;;
17812;SDS011;9030;50.792;8.320;2023-05-01T07:45:02;11.55;;;4.95;;
17812;SDS011;9030;50.792;8.320;2023-05-01T07:47:29;8.13;;;4.72;;
17812;SDS011;9030;50.792;8.320;2023-05-01T07:49:56;11.23;;;4.85;;
17812;SDS011;9030;50.792;8.320;2023-05-01T07:52:24;12.70;;;4.55;;
17812;SDS011;9030;50.792;8.320;2023-05-01T07:54:51;11.52;;;5.50;;
17812;SDS011;9030;50.792;8.320;2023-05-01T07:57:17;10.52;;;4.55;;
17812;SDS011;9030;50.792;8.320;2023-05-01T07:59:44;13.43;;;5.25;;
17812;SDS011;9030;50.792;8.320;2023-05-01T08:02:12;8.93;;;4.80;;
17812;SDS011;9030;50.792;8.320;2023-05-01T08:04:41;9.65;;;4.80;;
17812;SDS011;9030;50.792;8.320;2023-05-01T08:07:20;10.80;;;5.45;;
17812;SDS011;9030;50.792;8.320;2023-05-01T08:09:48;18.38;;;6.40;;
17812;SDS011;9030;50.792;8.320;2023-05-01T08:12:14;14.30;;;6.18;;
17812;SDS011;9030;50.792;8.320;2023-05-01T08:14:41;38.33;;;21.63;;
17812;SDS011;9030;50.792;8.320;2023-05-01T08:17:08;12.63;;;6.72;;
17812;SDS011;9030;50.792;8.320;2023-05-01T08:19:35;15.27;;;7.43;;
17812;SDS011;9030;50.792;8.320;2023-05-01T08:22:01;11.20;;;5.10;;
17812;SDS011;9030;50.792;8.320;2023-05-01T08:24:28;11.88;;;4.70;;
17812;SDS011;9030;50.792;8.320;2023-05-01T08:26:56;9.70;;;5.15;;
17812;SDS011;9030;50.792;8.320;2023-05-01T08:29:23;11.13;;;5.30;;
17812;SDS011;9030;50.792;8.320;2023-05-01T08:31:50;10.57;;;5.28;;
17812;SDS011;9030;50.792;8.320;2023-05-01T08:34:17;10.75;;;4.95;;
17812;SDS011;9030;50.792;8.320;2023-05-01T08:36:43;11.25;;;5.60;;
17812;SDS011;9030;50.792;8.320;2023-05-01T08:39:11;8.82;;;4.85;;
17812;SDS011;9030;50.792;8.320;2023-05-01T08:41:39;8.05;;;4.43;;
17812;SDS011;9030;50.792;8.320;2023-05-01T08:44:11;10.85;;;5.10;;
17812;SDS011;9030;50.792;8.320;2023-05-01T08:46:43;10.95;;;4.55;;
17812;SDS011;9030;50.792;8.320;2023-05-01T08:49:14;8.73;;;4.90;;
17812;SDS011;9030;50.792;8.320;2023-05-01T08:51:43;9.32;;;5.07;;
17812;SDS011;9030;50.792;8.320;2023-05-01T08:54:12;14.23;;;5.57;;
17812;SDS011;9030;50.792;8.320;2023-05-01T08:56:39;11.82;;;5.15;;
17812;SDS011;9030;50.792;8.320;2023-05-01T08:59:09;10.70;;;5.47;;
17812;SDS011;9030;50.792;8.320;2023-05-01T09:01:39;10.15;;;5.25;;
17812;SDS011;9030;50.792;8.320;2023-05-01T09:04:16;10.30;;;4.88;;
17812;SDS011;9030;50.792;8.320;2023-05-01T09:07:14;10.18;;;5.13;;
17812;SDS011;9030;50.792;8.320;2023-05-01T09:09:41;8.32;;;4.78;;
17812;SDS011;9030;50.792;8.320;2023-05-01T09:12:11;10.75;;;4.50;;
17812;SDS011;9030;50.792;8.320;2023-05-01T09:14:44;7.40;;;4.65;;
17812;SDS011;9030;50.792;8.320;2023-05-01T09:17:12;9.35;;;4.63;;
17812;SDS011;9030;50.792;8.320;2023-05-01T09:19:40;9.93;;;4.30;;
17812;SDS011;9030;50.792;8.320;2023-05-01T09:22:07;9.68;;;4.63;;
17812;SDS011;9030;50.792;8.320;2023-05-01T09:24:38;10.20;;;5.20;;
17812;SDS011;9030;50.792;8.320;2023-05-01T09:27:05;11.40;;;5.65;;
17812;SDS011;9030;50.792;8.320;2023-05-01T09:29:38;8.45;;;4.63;;
17812;SDS011;9030;50.792;8.320;2023-05-01T09:32:14;12.00;;;5.13;;
17812;SDS011;9030;50.792;8.320;2023-05-01T09:34:43;10.40;;;4.75;;
17812;SDS011;9030;50.792;8.320;2023-05-01T09:37:11;11.13;;;5.65;;
17812;SDS011;9030;50.792;8.320;2023-05-01T09:39:41;10.13;;;4.25;;
17812;SDS011;9030;50.792;8.320;2023-05-01T09:42:10;8.02;;;3.80;;
17812;SDS011;9030;50.792;8.320;2023-05-01T09:44:40;7.50;;;4.15;;
17812;SDS011;9030;50.792;8.320;2023-05-01T09:47:08;7.82;;;3.90;;
17812;SDS011;9030;50.792;8.320;2023-05-01T09:49:44;9.93;;;4.15;;
17812;SDS011;9030;50.792;8.320;2023-05-01T09:52:12;9.70;;;4.18;;
17812;SDS011;9030;50.792;8.320;2023-05-01T09:54:39;8.77;;;3.90;;
17812;SDS011;9030;50.792;8.320;2023-05-01T09:57:06;6.40;;;4.28;;
17812;SDS011;9030;50.792;8.320;2023-05-01T09:59:34;7.93;;;3.92;;
17812;SDS011;9030;50.792;8.320;2023-05-01T10:05:24;10.82;;;4.07;;
17812;SDS011;9030;50.792;8.320;2023-05-01T10:07:55;9.38;;;4.32;;
17812;SDS011;9030;50.792;8.320;2023-05-01T10:10:23;9.88;;;4.30;;
17812;SDS011;9030;50.792;8.320;2023-05-01T10:12:50;9.85;;;4.13;;
17812;SDS011;9030;50.792;8.320;2023-05-01T10:15:17;8.05;;;3.50;;
17812;SDS011;9030;50.792;8.320;2023-05-01T10:17:45;10.70;;;4.03;;
17812;SDS011;9030;50.792;8.320;2023-05-01T10:20:15;7.68;;;3.80;;
17812;SDS011;9030;50.792;8.320;2023-05-01T10:22:43;8.73;;;4.28;;
17812;SDS011;9030;50.792;8.320;2023-05-01T10:25:11;8.55;;;3.70;;
17812;SDS011;9030;50.792;8.320;2023-05-01T10:27:39;6.63;;;3.88;;
17812;SDS011;9030;50.792;8.320;2023-05-01T10:30:07;8.20;;;3.50;;
17812;SDS011;9030;50.792;8.320;2023-05-01T10:32:35;5.47;;;3.22;;
17812;SDS011;9030;50.792;8.320;2023-05-01T10:35:03;5.13;;;2.92;;
17812;SDS011;9030;50.792;8.320;2023-05-01T10:37:36;4.40;;;2.22;;
17812;SDS011;9030;50.792;8.320;2023-05-01T10:43:19;4.68;;;2.08;;
17812;SDS011;9030;50.792;8.320;2023-05-01T10:45:50;5.15;;;2.33;;
17812;SDS011;9030;50.792;8.320;2023-05-01T10:51:19;6.38;;;2.80;;
17812;SDS011;9030;50.792;8.320;2023-05-01T10:53:48;6.03;;;2.40;;
17812;SDS011;9030;50.792;8.320;2023-05-01T10:56:42;8.02;;;3.00;;
17812;SDS011;9030;50.792;8.320;2023-05-01T10:59:10;8.18;;;3.42;;
17812;SDS011;9030;50.792;8.320;2023-05-01T11:01:37;5.30;;;3.08;;
17812;SDS011;9030;50.792;8.320;2023-05-01T11:04:05;6.03;;;2.55;;
17812;SDS011;9030;50.792;8.320;2023-05-01T11:06:34;4.47;;;2.58;;
17812;SDS011;9030;50.792;8.320;2023-05-01T11:09:01;4.38;;;2.38;;
17812;SDS011;9030;50.792;8.320;2023-05-01T11:12:01;4.95;;;2.47;;
17812;SDS011;9030;50.792;8.320;2023-05-01T11:14:37;3.72;;;2.45;;
17812;SDS011;9030;50.792;8.320;2023-05-01T11:17:44;3.75;;;2.55;;
17812;SDS011;9030;50.792;8.320;2023-05-01T11:20:11;3.95;;;2.40;;
17812;SDS011;9030;50.792;8.320;2023-05-01T11:22:39;5.97;;;2.58;;
17812;SDS011;9030;50.792;8.320;2023-05-01T11:25:17;4.22;;;2.35;;
17812;SDS011;9030;50.792;8.320;2023-05-01T11:27:46;5.18;;;2.40;;
17812;SDS011;9030;50.792;8.320;2023-05-01T11:30:18;6.88;;;3.40;;
17812;SDS011;9030;50.792;8.320;2023-05-01T11:32:45;5.22;;;2.10;;
17812;SDS011;9030;50.792;8.320;2023-05-01T11:35:15;7.20;;;3.35;;
17812;SDS011;9030;50.792;8.320;2023-05-01T11:37:43;7.75;;;4.43;;
17812;SDS011;9030;50.792;8.320;2023-05-01T11:40:18;4.95;;;2.95;;
17812;SDS011;9030;50.792;8.320;2023-05-01T11:42:46;5.72;;;2.70;;
17812;SDS011;9030;50.792;8.320;2023-05-01T11:45:13;6.60;;;3.60;;
17812;SDS011;9030;50.792;8.320;2023-05-01T11:47:41;6.82;;;2.70;;
17812;SDS011;9030;50.792;8.320;2023-05-01T11:50:08;4.20;;;2.15;;
17812;SDS011;9030;50.792;8.320;2023-05-01T11:52:43;8.32;;;5.40;;
17812;SDS011;9030;50.792;8.320;2023-05-01T11:55:12;7.13;;;4.93;;
17812;SDS011;9030;50.792;8.320;2023-05-01T11:57:43;8.80;;;3.90;;
17812;SDS011;9030;50.792;8.320;2023-05-01T12:00:12;11.90;;;6.40;;
17812;SDS011;9030;50.792;8.320;2023-05-01T12:02:40;5.85;;;3.83;;
17812;SDS011;9030;50.792;8.320;2023-05-01T12:05:20;8.23;;;4.88;;
17812;SDS011;9030;50.792;8.320;2023-05-01T12:07:47;4.53;;;2.55;;
17812;SDS011;9030;50.792;8.320;2023-05-01T12:10:14;6.32;;;2.58;;
17812;SDS011;9030;50.792;8.320;2023-05-01T12:12:41;3.97;;;2.45;;
17812;SDS011;9030;50.792;8.320;2023-05-01T12:15:09;5.72;;;2.97;;
17812;SDS011;9030;50.792;8.320;2023-05-01T12:17:36;4.97;;;2.67;;
17812;SDS011;9030;50.792;8.320;2023-05-01T12:20:05;5.13;;;2.72;;
17812;SDS011;9030;50.792;8.320;2023-05-01T12:22:33;7.15;;;2.95;;
17812;SDS011;9030;50.792;8.320;2023-05-01T12:25:00;8.48;;;2.70;;
17812;SDS011;9030;50.792;8.320;2023-05-01T12:27:28;4.43;;;2.95;;
17812;SDS011;9030;50.792;8.320;2023-05-01T12:29:56;3.28;;;2.35;;
17812;SDS011;9030;50.792;8.320;2023-05-01T12:32:28;6.80;;;2.92;;
17812;SDS011;9030;50.792;8.320;2023-05-01T12:34:57;6.90;;;2.42;;
17812;SDS011;9030;50.792;8.320;2023-05-01T12:37:29;6.70;;;2.58;;
17812;SDS011;9030;50.792;8.320;2023-05-01T12:39:57;6.22;;;2.03;;
17812;SDS011;9030;50.792;8.320;2023-05-01T12:42:25;7.38;;;2.83;;
17812;SDS011;9030;50.792;8.320;2023-05-01T12:44:57;7.20;;;3.08;;
17812;SDS011;9030;50.792;8.320;2023-05-01T12:47:25;7.18;;;2.40;;
17812;SDS011;9030;50.792;8.320;2023-05-01T12:50:01;6.70;;;2.90;;
17812;SDS011;9030;50.792;8.320;2023-05-01T12:52:30;6.63;;;2.38;;
17812;SDS011;9030;50.792;8.320;2023-05-01T12:55:00;5.45;;;2.40;;
17812;SDS011;9030;50.792;8.320;2023-05-01T12:57:28;4.13;;;2.30;;
17812;SDS011;9030;50.792;8.320;2023-05-01T12:59:57;4.60;;;2.33;;
17812;SDS011;9030;50.792;8.320;2023-05-01T13:02:28;5.28;;;2.58;;
17812;SDS011;9030;50.792;8.320;2023-05-01T13:05:06;5.68;;;2.45;;
17812;SDS011;9030;50.792;8.320;2023-05-01T13:07:35;6.70;;;2.80;;
17812;SDS011;9030;50.792;8.320;2023-05-01T13:10:04;5.30;;;2.25;;
17812;SDS011;9030;50.792;8.320;2023-05-01T13:12:32;5.93;;;2.60;;
17812;SDS011;9030;50.792;8.320;2023-05-01T13:15:08;4.18;;;2.30;;
17812;SDS011;9030;50.792;8.320;2023-05-01T13:17:44;5.05;;;2.40;;
17812;SDS011;9030;50.792;8.320;2023-05-01T13:20:11;9.10;;;3.08;;
17812;SDS011;9030;50.792;8.320;2023-05-01T13:22:40;5.55;;;2.75;;
17812;SDS011;9030;50.792;8.320;2023-05-01T13:25:13;6.35;;;2.85;;
17812;SDS011;9030;50.792;8.320;2023-05-01T13:27:46;4.45;;;2.42;;
17812;SDS011;9030;50.792;8.320;2023-05-01T13:30:14;7.60;;;3.38;;
17812;SDS011;9030;50.792;8.320;2023-05-01T13:32:43;5.20;;;2.78;;
17812;SDS011;9030;50.792;8.320;2023-05-01T13:35:12;8.52;;;3.53;;
17812;SDS011;9030;50.792;8.320;2023-05-01T13:37:49;7.60;;;2.83;;
17812;SDS011;9030;50.792;8.320;2023-05-01T13:40:16;4.93;;;3.38;;
17812;SDS011;9030;50.792;8.320;2023-05-01T13:42:43;9.07;;;4.28;;
17812;SDS011;9030;50.792;8.320;2023-05-01T13:45:12;10.13;;;3.83;;
17812;SDS011;9030;50.792;8.320;2023-05-01T13:47:43;9.02;;;4.35;;
17812;SDS011;9030;50.792;8.320;2023-05-01T13:50:12;7.22;;;4.65;;
17812;SDS011;9030;50.792;8.320;2023-05-01T13:52:41;11.05;;;5.88;;
17812;SDS011;9030;50.792;8.320;2023-05-01T13:55:10;13.90;;;7.35;;
17812;SDS011;9030;50.792;8.320;2023-05-01T13:57:37;9.40;;;5.38;;
17812;SDS011;9030;50.792;8.320;2023-05-01T14:00:07;7.30;;;4.30;;
17812;SDS011;9030;50.792;8.320;2023-05-01T14:02:41;8.07;;;3.90;;
17812;SDS011;9030;50.792;8.320;2023-05-01T14:05:09;7.30;;;3.15;;
17812;SDS011;9030;50.792;8.320;2023-05-01T14:07:38;5.95;;;3.17;;
17812;SDS011;9030;50.792;8.320;2023-05-01T14:10:20;7.68;;;3.03;;
17812;SDS011;9030;50.792;8.320;2023-05-01T14:12:48;6.28;;;3.30;;
17812;SDS011;9030;50.792;8.320;2023-05-01T14:15:16;7.43;;;3.45;;
17812;SDS011;9030;50.792;8.320;2023-05-01T14:17:43;4.38;;;3.13;;
17812;SDS011;9030;50.792;8.320;2023-05-01T14:20:10;7.38;;;3.17;;
17812;SDS011;9030;50.792;8.320;2023-05-01T14:22:40;6.00;;;2.63;;
17812;SDS011;9030;50.792;8.320;2023-05-01T14:25:15;6.30;;;2.90;;
17812;SDS011;9030;50.792;8.320;2023-05-01T14:27:50;6.40;;;3.53;;
17812;SDS011;9030;50.792;8.320;2023-05-01T14:30:19;5.78;;;2.83;;
17812;SDS011;9030;50.792;8.320;2023-05-01T14:32:52;7.72;;;2.88;;
17812;SDS011;9030;50.792;8.320;2023-05-01T14:35:19;5.28;;;2.85;;
17812;SDS011;9030;50.792;8.320;2023-05-01T14:37:47;7.32;;;2.55;;
17812;SDS011;9030;50.792;8.320;2023-05-01T14:40:14;4.65;;;2.75;;
17812;SDS011;9030;50.792;8.320;2023-05-01T14:42:44;6.05;;;3.17;;
17812;SDS011;9030;50.792;8.320;2023-05-01T14:45:12;7.30;;;2.95;;
17812;SDS011;9030;50.792;8.320;2023-05-01T14:47:42;5.88;;;2.72;;
17812;SDS011;9030;50.792;8.320;2023-05-01T14:50:11;3.65;;;2.70;;
17812;SDS011;9030;50.792;8.320;2023-05-01T14:52:42;4.97;;;2.83;;
17812;SDS011;9030;50.792;8.320;2023-05-01T14:55:09;5.53;;;2.58;;
17812;SDS011;9030;50.792;8.320;2023-05-01T14:57:37;6.18;;;3.05;;
17812;SDS011;9030;50.792;8.320;2023-05-01T15:00:06;7.68;;;2.88;;
17812;SDS011;9030;50.792;8.320;2023-05-01T15:02:33;6.93;;;2.58;;
17812;SDS011;9030;50.792;8.320;2023-05-01T15:05:01;4.68;;;2.63;;
17812;SDS011;9030;50.792;8.320;2023-05-01T15:07:27;5.95;;;3.33;;
17812;SDS011;9030;50.792;8.320;2023-05-01T15:09:54;6.43;;;2.20;;
17812;SDS011;9030;50.792;8.320;2023-05-01T15:12:22;6.72;;;2.85;;
17812;SDS011;9030;50.792;8.320;2023-05-01T15:14:49;6.45;;;2.85;;
17812;SDS011;9030;50.792;8.320;2023-05-01T15:17:18;3.72;;;2.53;;
17812;SDS011;9030;50.792;8.320;2023-05-01T15:19:45;4.75;;;2.30;;